sensor_id;sensor_type;location;lat;lon;timestamp;P1;durP1;ratioP1;P2;durP2;ratioP2
8409;SDS011;4242;53.670;10.080;2022-09-01T00:00:49;0.47;;;0.47;;
8409;SDS011;4242;53.670;10.080;2022-09-01T00:03:16;1.80;;;0.73;;
8409;SDS011;4242;53.670;10.080;2022-09-01T00:05:43;0.70;;;0.70;;
8409;SDS011;4242;53.670;10.080;2022-09-01T00:08:10;1.33;;;0.80;;
8409;SDS011;4242;53.670;10.080;2022-09-01T00:10:36;0.60;;;0.60;;
8409;SDS011;4242;53.670;10.080;2022-09-01T00:13:03;0.80;;;0.80;;
8409;SDS011;4242;53.670;10.080;2022-09-01T00:17:59;0.77;;;0.77;;
8409;SDS011;4242;53.670;10.080;2022-09-01T00:20:25;1.27;;;0.80;;
8409;SDS011;4242;53.670;10.080;2022-09-01T00:22:51;0.87;;;0.70;;
8409;SDS011;4242;53.670;10.080;2022-09-01T00:25:18;1.23;;;0.90;;
8409;SDS011;4242;53.670;10.080;2022-09-01T00:27:45;2.13;;;1.00;;
8409;SDS011;4242;53.670;10.080;2022-09-01T00:30:11;0.80;;;0.80;;
8409;SDS011;4242;53.670;10.080;2022-09-01T00:32:37;0.57;;;0.57;;
8409;SDS011;4242;53.670;10.080;2022-09-01T00:35:03;0.83;;;0.80;;
8409;SDS011;4242;53.670;10.080;2022-09-01T00:37:30;2.00;;;0.80;;
8409;SDS011;4242;53.670;10.080;2022-09-01T00:39:56;1.27;;;1.00;;
8409;SDS011;4242;53.670;10.080;2022-09-01T00:42:22;0.60;;;0.60;;
8409;SDS011;4242;53.670;10.080;2022-09-01T00:44:48;0.60;;;0.60;;
8409;SDS011;4242;53.670;10.080;2022-09-01T00:47:14;1.30;;;0.80;;
8409;SDS011;4242;53.670;10.080;2022-09-01T00:49:42;1.73;;;0.80;;
8409;SDS011;4242;53.670;10.080;2022-09-01T00:52:14;0.70;;;0.70;;
8409;SDS011;4242;53.670;10.080;2022-09-01T00:54:42;0.83;;;0.60;;
8409;SDS011;4242;53.670;10.080;2022-09-01T00:57:09;0.90;;;0.90;;
8409;SDS011;4242;53.670;10.080;2022-09-01T00:59:37;7.57;;;1.07;;
8409;SDS011;4242;53.670;10.080;2022-09-01T01:02:05;2.63;;;0.83;;
8409;SDS011;4242;53.670;10.080;2022-09-01T01:04:31;0.90;;;0.90;;
8409;SDS011;4242;53.670;10.080;2022-09-01T01:06:57;1.03;;;0.93;;
8409;SDS011;4242;53.670;10.080;2022-09-01T01:09:26;1.03;;;0.80;;
8409;SDS011;4242;53.670;10.080;2022-09-01T01:11:54;0.90;;;0.90;;
8409;SDS011;4242;53.670;10.080;2022-09-01T01:14:25;0.93;;;0.93;;
8409;SDS011;4242;53.670;10.080;2022-09-01T01:16:52;0.90;;;0.90;;
8409;SDS011;4242;53.670;10.080;2022-09-01T01:19:31;0.80;;;0.80;;
8409;SDS011;4242;53.670;10.080;2022-09-01T01:22:26;0.83;;;0.80;;
8409;SDS011;4242;53.670;10.080;2022-09-01T01:25:12;0.90;;;0.90;;
8409;SDS011;4242;53.670;10.080;2022-09-01T01:27:39;0.80;;;0.80;;
8409;SDS011;4242;53.670;10.080;2022-09-01T01:30:07;1.17;;;0.80;;
8409;SDS011;4242;53.670;10.080;2022-09-01T01:32:35;0.90;;;0.90;;
8409;SDS011;4242;53.670;10.080;2022-09-01T01:35:01;1.17;;;0.90;;
8409;SDS011;4242;53.670;10.080;2022-09-01T01:37:29;0.77;;;0.77;;
8409;SDS011;4242;53.670;10.080;2022-09-01T01:39:56;0.90;;;0.90;;
8409;SDS011;4242;53.670;10.080;2022-09-01T01:42:22;0.80;;;0.80;;
8409;SDS011;4242;53.670;10.080;2022-09-01T01:44:50;0.90;;;0.90;;
8409;SDS011;4242;53.670;10.080;2022-09-01T01:47:16;0.90;;;0.90;;
8409;SDS011;4242;53.670;10.080;2022-09-01T01:49:44;0.80;;;0.80;;
8409;SDS011;4242;53.670;10.080;2022-09-01T01:52:10;0.97;;;0.63;;
8409;SDS011;4242;53.670;10.080;2022-09-01T01:54:43;0.80;;;0.80;;
8409;SDS011;4242;53.670;10.080;2022-09-01T01:57:10;1.00;;;1.00;;
8409;SDS011;4242;53.670;10.080;2022-09-01T01:59:41;2.13;;;0.87;;
8409;SDS011;4242;53.670;10.080;2022-09-01T02:02:07;1.10;;;1.00;;
8409;SDS011;4242;53.670;10.080;2022-09-01T02:04:33;1.00;;;1.00;;
8409;SDS011;4242;53.670;10.080;2022-09-01T02:06:59;0.97;;;0.97;;
8409;SDS011;4242;53.670;10.080;2022-09-01T02:09:26;0.80;;;0.80;;
8409;SDS011;4242;53.670;10.080;2022-09-01T02:11:52;2.17;;;0.90;;
8409;SDS011;4242;53.670;10.080;2022-09-01T02:14:21;0.83;;;0.83;;
8409;SDS011;4242;53.670;10.080;2022-09-01T02:16:47;1.30;;;1.30;;
8409;SDS011;4242;53.670;10.080;2022-09-01T02:19:14;1.10;;;1.10;;
8409;SDS011;4242;53.670;10.080;2022-09-01T02:21:43;1.00;;;1.00;;
8409;SDS011;4242;53.670;10.080;2022-09-01T02:24:13;1.00;;;1.00;;
8409;SDS011;4242;53.670;10.080;2022-09-01T02:26:40;1.00;;;1.00;;
8409;SDS011;4242;53.670;10.080;2022-09-01T02:29:11;0.93;;;0.93;;
8409;SDS011;4242;53.670;10.080;2022-09-01T02:31:42;1.00;;;1.00;;
8409;SDS011;4242;53.670;10.080;2022-09-01T02:34:09;1.00;;;1.00;;
8409;SDS011;4242;53.670;10.080;2022-09-01T02:36:38;0.97;;;0.97;;
8409;SDS011;4242;53.670;10.080;2022-09-01T02:39:08;0.90;;;0.90;;
8409;SDS011;4242;53.670;10.080;2022-09-01T02:41:34;1.90;;;1.10;;
8409;SDS011;4242;53.670;10.080;2022-09-01T02:44:00;0.93;;;0.93;;
8409;SDS011;4242;53.670;10.080;2022-09-01T02:46:28;1.00;;;1.00;;
8409;SDS011;4242;53.670;10.080;2022-09-01T02:48:54;0.80;;;0.80;;
8409;SDS011;4242;53.670;10.080;2022-09-01T02:51:21;1.00;;;1.00;;
8409;SDS011;4242;53.670;10.080;2022-09-01T02:53:49;1.07;;;1.00;;
8409;SDS011;4242;53.670;10.080;2022-09-01T02:56:17;1.10;;;1.00;;
8409;SDS011;4242;53.670;10.080;2022-09-01T02:58:44;0.90;;;0.90;;
8409;SDS011;4242;53.670;10.080;2022-09-01T03:01:12;1.00;;;1.00;;
8409;SDS011;4242;53.670;10.080;2022-09-01T03:03:38;1.30;;;1.20;;
8409;SDS011;4242;53.670;10.080;2022-09-01T03:06:04;1.27;;;1.20;;
8409;SDS011;4242;53.670;10.080;2022-09-01T03:08:34;1.47;;;1.47;;
8409;SDS011;4242;53.670;10.080;2022-09-01T03:11:03;1.00;;;1.00;;
8409;SDS011;4242;53.670;10.080;2022-09-01T03:13:31;1.47;;;1.17;;
8409;SDS011;4242;53.670;10.080;2022-09-01T03:15:56;1.00;;;1.00;;
8409;SDS011;4242;53.670;10.080;2022-09-01T03:18:22;0.90;;;0.90;;
8409;SDS011;4242;53.670;10.080;2022-09-01T03:20:48;1.10;;;1.10;;
8409;SDS011;4242;53.670;10.080;2022-09-01T03:23:16;1.10;;;1.10;;
8409;SDS011;4242;53.670;10.080;2022-09-01T03:25:43;1.40;;;1.30;;
8409;SDS011;4242;53.670;10.080;2022-09-01T03:28:09;0.80;;;0.80;;
8409;SDS011;4242;53.670;10.080;2022-09-01T03:30:37;0.90;;;0.90;;
8409;SDS011;4242;53.670;10.080;2022-09-01T03:33:04;1.07;;;1.07;;
8409;SDS011;4242;53.670;10.080;2022-09-01T03:35:31;2.50;;;0.90;;
8409;SDS011;4242;53.670;10.080;2022-09-01T03:37:59;1.20;;;1.20;;
8409;SDS011;4242;53.670;10.080;2022-09-01T03:40:26;1.00;;;1.00;;
8409;SDS011;4242;53.670;10.080;2022-09-01T03:42:53;1.17;;;1.00;;
8409;SDS011;4242;53.670;10.080;2022-09-01T03:45:20;1.57;;;1.30;;
8409;SDS011;4242;53.670;10.080;2022-09-01T03:47:46;1.40;;;1.30;;
8409;SDS011;4242;53.670;10.080;2022-09-01T03:50:16;2.40;;;1.40;;
8409;SDS011;4242;53.670;10.080;2022-09-01T03:52:49;1.50;;;1.50;;
8409;SDS011;4242;53.670;10.080;2022-09-01T03:55:16;1.60;;;1.60;;
8409;SDS011;4242;53.670;10.080;2022-09-01T03:57:47;2.70;;;1.23;;
8409;SDS011;4242;53.670;10.080;2022-09-01T04:00:13;1.60;;;1.20;;
8409;SDS011;4242;53.670;10.080;2022-09-01T04:02:47;1.13;;;1.13;;
8409;SDS011;4242;53.670;10.080;2022-09-01T04:05:15;1.73;;;1.10;;
8409;SDS011;4242;53.670;10.080;2022-09-01T04:07:42;1.20;;;1.20;;
8409;SDS011;4242;53.670;10.080;2022-09-01T04:10:10;1.50;;;1.40;;
8409;SDS011;4242;53.670;10.080;2022-09-01T04:12:36;1.33;;;1.33;;
8409;SDS011;4242;53.670;10.080;2022-09-01T04:15:03;1.43;;;1.40;;
8409;SDS011;4242;53.670;10.080;2022-09-01T04:17:30;1.17;;;1.17;;
8409;SDS011;4242;53.670;10.080;2022-09-01T04:20:14;1.70;;;1.60;;
8409;SDS011;4242;53.670;10.080;2022-09-01T04:22:44;1.40;;;1.40;;
8409;SDS011;4242;53.670;10.080;2022-09-01T04:25:11;1.20;;;1.20;;
8409;SDS011;4242;53.670;10.080;2022-09-01T04:27:37;1.13;;;1.13;;
8409;SDS011;4242;53.670;10.080;2022-09-01T04:30:05;1.60;;;1.50;;
8409;SDS011;4242;53.670;10.080;2022-09-01T04:32:34;1.70;;;1.27;;
8409;SDS011;4242;53.670;10.080;2022-09-01T04:35:02;1.40;;;1.40;;
8409;SDS011;4242;53.670;10.080;2022-09-01T04:37:28;1.40;;;1.30;;
8409;SDS011;4242;53.670;10.080;2022-09-01T04:39:55;1.83;;;1.30;;
8409;SDS011;4242;53.670;10.080;2022-09-01T04:42:21;1.50;;;1.40;;
8409;SDS011;4242;53.670;10.080;2022-09-01T04:44:48;1.23;;;1.23;;
8409;SDS011;4242;53.670;10.080;2022-09-01T04:47:14;1.60;;;1.50;;
8409;SDS011;4242;53.670;10.080;2022-09-01T04:49:43;1.70;;;1.60;;
8409;SDS011;4242;53.670;10.080;2022-09-01T04:52:11;4.33;;;1.70;;
8409;SDS011;4242;53.670;10.080;2022-09-01T04:54:37;5.47;;;1.60;;
8409;SDS011;4242;53.670;10.080;2022-09-01T04:57:03;10.23;;;1.70;;
8409;SDS011;4242;53.670;10.080;2022-09-01T04:59:31;2.97;;;1.40;;
8409;SDS011;4242;53.670;10.080;2022-09-01T05:01:57;3.13;;;1.67;;
8409;SDS011;4242;53.670;10.080;2022-09-01T05:04:25;2.47;;;1.70;;
8409;SDS011;4242;53.670;10.080;2022-09-01T05:06:52;2.67;;;1.70;;
8409;SDS011;4242;53.670;10.080;2022-09-01T05:09:24;1.90;;;1.80;;
8409;SDS011;4242;53.670;10.080;2022-09-01T05:11:51;1.57;;;1.53;;
8409;SDS011;4242;53.670;10.080;2022-09-01T05:14:17;3.17;;;1.83;;
8409;SDS011;4242;53.670;10.080;2022-09-01T05:16:44;1.70;;;1.60;;
8409;SDS011;4242;53.670;10.080;2022-09-01T05:19:11;1.83;;;1.73;;
8409;SDS011;4242;53.670;10.080;2022-09-01T05:21:39;2.17;;;1.97;;
8409;SDS011;4242;53.670;10.080;2022-09-01T05:24:09;1.90;;;1.80;;
8409;SDS011;4242;53.670;10.080;2022-09-01T05:26:35;2.90;;;1.93;;
8409;SDS011;4242;53.670;10.080;2022-09-01T05:29:05;3.80;;;1.70;;
8409;SDS011;4242;53.670;10.080;2022-09-01T05:31:41;2.53;;;2.07;;
8409;SDS011;4242;53.670;10.080;2022-09-01T05:34:07;2.27;;;2.17;;
8409;SDS011;4242;53.670;10.080;2022-09-01T05:36:34;3.63;;;2.20;;
8409;SDS011;4242;53.670;10.080;2022-09-01T05:39:02;4.50;;;2.30;;
8409;SDS011;4242;53.670;10.080;2022-09-01T05:41:29;2.30;;;2.10;;
8409;SDS011;4242;53.670;10.080;2022-09-01T05:43:55;2.43;;;2.27;;
8409;SDS011;4242;53.670;10.080;2022-09-01T05:46:22;3.60;;;2.53;;
8409;SDS011;4242;53.670;10.080;2022-09-01T05:48:50;2.40;;;2.30;;
8409;SDS011;4242;53.670;10.080;2022-09-01T05:51:18;2.60;;;2.40;;
8409;SDS011;4242;53.670;10.080;2022-09-01T05:53:45;3.17;;;2.57;;
8409;SDS011;4242;53.670;10.080;2022-09-01T05:56:15;3.00;;;2.80;;
8409;SDS011;4242;53.670;10.080;2022-09-01T05:58:41;2.40;;;2.30;;
8409;SDS011;4242;53.670;10.080;2022-09-01T06:01:08;3.07;;;2.20;;
8409;SDS011;4242;53.670;10.080;2022-09-01T06:03:35;5.90;;;2.77;;
8409;SDS011;4242;53.670;10.080;2022-09-01T06:06:04;2.40;;;2.30;;
8409;SDS011;4242;53.670;10.080;2022-09-01T06:08:36;2.40;;;2.20;;
8409;SDS011;4242;53.670;10.080;2022-09-01T06:11:02;5.67;;;2.33;;
8409;SDS011;4242;53.670;10.080;2022-09-01T06:13:36;3.70;;;2.10;;
8409;SDS011;4242;53.670;10.080;2022-09-01T06:16:04;2.60;;;2.40;;
8409;SDS011;4242;53.670;10.080;2022-09-01T06:18:31;2.53;;;2.30;;
8409;SDS011;4242;53.670;10.080;2022-09-01T06:20:58;2.30;;;2.20;;
8409;SDS011;4242;53.670;10.080;2022-09-01T06:23:24;2.93;;;2.23;;
8409;SDS011;4242;53.670;10.080;2022-09-01T06:25:50;2.40;;;2.30;;
8409;SDS011;4242;53.670;10.080;2022-09-01T06:28:16;2.00;;;1.90;;
8409;SDS011;4242;53.670;10.080;2022-09-01T06:30:45;2.73;;;1.97;;
8409;SDS011;4242;53.670;10.080;2022-09-01T06:33:13;2.30;;;2.17;;
8409;SDS011;4242;53.670;10.080;2022-09-01T06:35:40;1.90;;;1.80;;
8409;SDS011;4242;53.670;10.080;2022-09-01T06:38:07;1.90;;;1.80;;
8409;SDS011;4242;53.670;10.080;2022-09-01T06:40:33;3.63;;;2.20;;
8409;SDS011;4242;53.670;10.080;2022-09-01T06:43:00;4.70;;;2.00;;
8409;SDS011;4242;53.670;10.080;2022-09-01T06:45:31;5.70;;;2.03;;
8409;SDS011;4242;53.670;10.080;2022-09-01T06:47:58;2.90;;;1.70;;
8409;SDS011;4242;53.670;10.080;2022-09-01T06:50:25;1.77;;;1.70;;
8409;SDS011;4242;53.670;10.080;2022-09-01T06:52:52;2.73;;;1.90;;
8409;SDS011;4242;53.670;10.080;2022-09-01T06:55:25;1.70;;;1.53;;
8409;SDS011;4242;53.670;10.080;2022-09-01T06:57:55;1.80;;;1.70;;
8409;SDS011;4242;53.670;10.080;2022-09-01T07:00:22;1.80;;;1.60;;
8409;SDS011;4242;53.670;10.080;2022-09-01T07:02:54;1.60;;;1.50;;
8409;SDS011;4242;53.670;10.080;2022-09-01T07:05:21;2.43;;;1.50;;
8409;SDS011;4242;53.670;10.080;2022-09-01T07:07:48;1.47;;;1.37;;
8409;SDS011;4242;53.670;10.080;2022-09-01T07:10:19;2.60;;;1.50;;
8409;SDS011;4242;53.670;10.080;2022-09-01T07:12:56;1.43;;;1.33;;
8409;SDS011;4242;53.670;10.080;2022-09-01T07:15:24;2.60;;;1.50;;
8409;SDS011;4242;53.670;10.080;2022-09-01T07:17:53;2.77;;;1.40;;
8409;SDS011;4242;53.670;10.080;2022-09-01T07:20:20;1.20;;;1.10;;
8409;SDS011;4242;53.670;10.080;2022-09-01T07:22:46;2.73;;;1.53;;
8409;SDS011;4242;53.670;10.080;2022-09-01T07:25:13;1.53;;;1.10;;
8409;SDS011;4242;53.670;10.080;2022-09-01T07:27:39;2.37;;;1.10;;
8409;SDS011;4242;53.670;10.080;2022-09-01T07:30:13;2.00;;;1.17;;
8409;SDS011;4242;53.670;10.080;2022-09-01T07:32:39;3.67;;;1.07;;
8409;SDS011;4242;53.670;10.080;2022-09-01T07:35:09;1.17;;;1.07;;
8409;SDS011;4242;53.670;10.080;2022-09-01T07:37:35;2.73;;;1.20;;
8409;SDS011;4242;53.670;10.080;2022-09-01T07:40:03;5.13;;;1.03;;
8409;SDS011;4242;53.670;10.080;2022-09-01T07:42:30;5.97;;;0.70;;
8409;SDS011;4242;53.670;10.080;2022-09-01T07:44:56;1.07;;;0.80;;
8409;SDS011;4242;53.670;10.080;2022-09-01T07:47:22;0.80;;;0.80;;
8409;SDS011;4242;53.670;10.080;2022-09-01T07:49:48;3.17;;;0.90;;
8409;SDS011;4242;53.670;10.080;2022-09-01T07:52:14;1.00;;;0.70;;
8409;SDS011;4242;53.670;10.080;2022-09-01T07:54:41;1.43;;;0.90;;
8409;SDS011;4242;53.670;10.080;2022-09-01T07:57:07;2.00;;;0.80;;
8409;SDS011;4242;53.670;10.080;2022-09-01T07:59:34;1.80;;;0.70;;
8409;SDS011;4242;53.670;10.080;2022-09-01T08:02:00;1.20;;;0.70;;
8409;SDS011;4242;53.670;10.080;2022-09-01T08:04:29;0.40;;;0.40;;
8409;SDS011;4242;53.670;10.080;2022-09-01T08:06:55;1.73;;;0.60;;
8409;SDS011;4242;53.670;10.080;2022-09-01T08:09:21;0.70;;;0.50;;
8409;SDS011;4242;53.670;10.080;2022-09-01T08:11:47;0.50;;;0.50;;
8409;SDS011;4242;53.670;10.080;2022-09-01T08:14:13;0.60;;;0.60;;
8409;SDS011;4242;53.670;10.080;2022-09-01T08:16:39;1.13;;;0.70;;
8409;SDS011;4242;53.670;10.080;2022-09-01T08:19:05;0.50;;;0.50;;
8409;SDS011;4242;53.670;10.080;2022-09-01T08:21:31;1.40;;;0.80;;
8409;SDS011;4242;53.670;10.080;2022-09-01T08:23:58;0.97;;;0.37;;
8409;SDS011;4242;53.670;10.080;2022-09-01T08:26:24;0.83;;;0.57;;
8409;SDS011;4242;53.670;10.080;2022-09-01T08:28:50;0.43;;;0.43;;
8409;SDS011;4242;53.670;10.080;2022-09-01T08:31:18;1.03;;;0.70;;
8409;SDS011;4242;53.670;10.080;2022-09-01T08:33:45;1.03;;;0.60;;
8409;SDS011;4242;53.670;10.080;2022-09-01T08:36:12;2.50;;;0.80;;
8409;SDS011;4242;53.670;10.080;2022-09-01T08:38:39;0.63;;;0.63;;
8409;SDS011;4242;53.670;10.080;2022-09-01T08:41:14;1.13;;;0.50;;
8409;SDS011;4242;53.670;10.080;2022-09-01T08:46:16;0.90;;;0.60;;
8409;SDS011;4242;53.670;10.080;2022-09-01T08:48:51;0.60;;;0.60;;
8409;SDS011;4242;53.670;10.080;2022-09-01T08:51:19;2.87;;;0.60;;
8409;SDS011;4242;53.670;10.080;2022-09-01T08:53:48;0.50;;;0.50;;
8409;SDS011;4242;53.670;10.080;2022-09-01T08:56:16;0.67;;;0.50;;
8409;SDS011;4242;53.670;10.080;2022-09-01T08:58:43;0.50;;;0.50;;
8409;SDS011;4242;53.670;10.080;2022-09-01T09:01:21;0.50;;;0.50;;
8409;SDS011;4242;53.670;10.080;2022-09-01T09:04:08;0.40;;;0.40;;
8409;SDS011;4242;53.670;10.080;2022-09-01T09:06:52;0.63;;;0.50;;
8409;SDS011;4242;53.670;10.080;2022-09-01T09:09:25;1.33;;;0.80;;
8409;SDS011;4242;53.670;10.080;2022-09-01T09:17:01;0.50;;;0.43;;
8409;SDS011;4242;53.670;10.080;2022-09-01T09:19:32;0.70;;;0.43;;
8409;SDS011;4242;53.670;10.080;2022-09-01T09:22:00;2.53;;;0.50;;
8409;SDS011;4242;53.670;10.080;2022-09-01T09:29:44;2.43;;;0.50;;
8409;SDS011;4242;53.670;10.080;2022-09-01T09:32:10;0.40;;;0.40;;
8409;SDS011;4242;53.670;10.080;2022-09-01T09:34:38;0.80;;;0.57;;
8409;SDS011;4242;53.670;10.080;2022-09-01T09:37:18;0.97;;;0.60;;
8409;SDS011;4242;53.670;10.080;2022-09-01T09:39:45;1.03;;;0.60;;
8409;SDS011;4242;53.670;10.080;2022-09-01T09:42:26;1.13;;;0.50;;
8409;SDS011;4242;53.670;10.080;2022-09-01T09:44:52;3.67;;;0.50;;
8409;SDS011;4242;53.670;10.080;2022-09-01T09:47:33;0.50;;;0.50;;
8409;SDS011;4242;53.670;10.080;2022-09-01T09:52:44;0.50;;;0.50;;
8409;SDS011;4242;53.670;10.080;2022-09-01T09:55:27;2.37;;;0.77;;
8409;SDS011;4242;53.670;10.080;2022-09-01T09:57:55;0.40;;;0.40;;
8409;SDS011;4242;53.670;10.080;2022-09-01T10:02:52;0.30;;;0.30;;
8409;SDS011;4242;53.670;10.080;2022-09-01T10:07:51;0.50;;;0.50;;
8409;SDS011;4242;53.670;10.080;2022-09-01T10:10:26;0.50;;;0.50;;
8409;SDS011;4242;53.670;10.080;2022-09-01T10:12:53;0.60;;;0.60;;
8409;SDS011;4242;53.670;10.080;2022-09-01T10:15:24;0.50;;;0.50;;
8409;SDS011;4242;53.670;10.080;2022-09-01T10:17:52;1.07;;;0.47;;
8409;SDS011;4242;53.670;10.080;2022-09-01T10:20:20;0.80;;;0.80;;
8409;SDS011;4242;53.670;10.080;2022-09-01T10:22:47;1.20;;;0.43;;
8409;SDS011;4242;53.670;10.080;2022-09-01T10:25:18;0.60;;;0.60;;
8409;SDS011;4242;53.670;10.080;2022-09-01T10:27:46;0.47;;;0.47;;
8409;SDS011;4242;53.670;10.080;2022-09-01T10:30:17;0.57;;;0.57;;
8409;SDS011;4242;53.670;10.080;2022-09-01T10:32:45;1.30;;;0.50;;
8409;SDS011;4242;53.670;10.080;2022-09-01T10:35:13;0.83;;;0.70;;
8409;SDS011;4242;53.670;10.080;2022-09-01T10:37:42;0.57;;;0.50;;
8409;SDS011;4242;53.670;10.080;2022-09-01T10:40:14;1.23;;;0.47;;
8409;SDS011;4242;53.670;10.080;2022-09-01T10:42:41;0.57;;;0.57;;
8409;SDS011;4242;53.670;10.080;2022-09-01T10:47:52;2.10;;;0.77;;
8409;SDS011;4242;53.670;10.080;2022-09-01T10:50:27;0.63;;;0.63;;
8409;SDS011;4242;53.670;10.080;2022-09-01T10:52:57;0.70;;;0.40;;
8409;SDS011;4242;53.670;10.080;2022-09-01T10:55:25;0.50;;;0.50;;
8409;SDS011;4242;53.670;10.080;2022-09-01T11:10:54;0.50;;;0.50;;
8409;SDS011;4242;53.670;10.080;2022-09-01T11:13:40;0.60;;;0.60;;
8409;SDS011;4242;53.670;10.080;2022-09-01T11:18:55;0.60;;;0.60;;
8409;SDS011;4242;53.670;10.080;2022-09-01T11:21:39;2.30;;;0.63;;
8409;SDS011;4242;53.670;10.080;2022-09-01T11:26:50;0.68;;;0.43;;
8409;SDS011;4242;53.670;10.080;2022-09-01T11:32:03;1.55;;;0.65;;
8409;SDS011;4242;53.670;10.080;2022-09-01T11:34:29;0.50;;;0.50;;
8409;SDS011;4242;53.670;10.080;2022-09-01T11:36:57;0.68;;;0.60;;
8409;SDS011;4242;53.670;10.080;2022-09-01T11:39:46;0.50;;;0.50;;
8409;SDS011;4242;53.670;10.080;2022-09-01T11:42:17;2.15;;;0.70;;
8409;SDS011;4242;53.670;10.080;2022-09-01T11:47:14;0.70;;;0.50;;
8409;SDS011;4242;53.670;10.080;2022-09-01T11:49:49;0.40;;;0.38;;
8409;SDS011;4242;53.670;10.080;2022-09-01T11:52:16;0.52;;;0.40;;
8409;SDS011;4242;53.670;10.080;2022-09-01T11:54:43;0.45;;;0.35;;
8409;SDS011;4242;53.670;10.080;2022-09-01T11:57:31;0.38;;;0.38;;
8409;SDS011;4242;53.670;10.080;2022-09-01T11:59:58;0.40;;;0.40;;
8409;SDS011;4242;53.670;10.080;2022-09-01T12:02:29;0.77;;;0.47;;
8409;SDS011;4242;53.670;10.080;2022-09-01T12:04:57;0.77;;;0.50;;
8409;SDS011;4242;53.670;10.080;2022-09-01T12:07:36;0.43;;;0.43;;
8409;SDS011;4242;53.670;10.080;2022-09-01T12:10:03;0.68;;;0.55;;
8409;SDS011;4242;53.670;10.080;2022-09-01T12:12:38;0.68;;;0.50;;
8409;SDS011;4242;53.670;10.080;2022-09-01T12:17:33;0.95;;;0.60;;
8409;SDS011;4242;53.670;10.080;2022-09-01T12:20:18;0.73;;;0.57;;
8409;SDS011;4242;53.670;10.080;2022-09-01T12:22:45;0.40;;;0.40;;
8409;SDS011;4242;53.670;10.080;2022-09-01T12:25:18;0.77;;;0.50;;
8409;SDS011;4242;53.670;10.080;2022-09-01T12:27:45;0.70;;;0.57;;
8409;SDS011;4242;53.670;10.080;2022-09-01T12:30:11;3.35;;;0.40;;
8409;SDS011;4242;53.670;10.080;2022-09-01T12:32:37;0.43;;;0.43;;
8409;SDS011;4242;53.670;10.080;2022-09-01T12:35:04;0.80;;;0.43;;
8409;SDS011;4242;53.670;10.080;2022-09-01T12:37:39;0.50;;;0.50;;
8409;SDS011;4242;53.670;10.080;2022-09-01T12:40:05;0.40;;;0.38;;
8409;SDS011;4242;53.670;10.080;2022-09-01T12:42:49;0.30;;;0.30;;
8409;SDS011;4242;53.670;10.080;2022-09-01T12:45:34;1.17;;;0.35;;
8409;SDS011;4242;53.670;10.080;2022-09-01T12:48:00;0.40;;;0.40;;
8409;SDS011;4242;53.670;10.080;2022-09-01T12:52:56;1.67;;;0.40;;
8409;SDS011;4242;53.670;10.080;2022-09-01T12:55:24;0.52;;;0.38;;
8409;SDS011;4242;53.670;10.080;2022-09-01T12:57:52;0.32;;;0.32;;
8409;SDS011;4242;53.670;10.080;2022-09-01T13:00:20;0.30;;;0.30;;
8409;SDS011;4242;53.670;10.080;2022-09-01T13:02:48;0.52;;;0.50;;
8409;SDS011;4242;53.670;10.080;2022-09-01T13:07:47;0.40;;;0.40;;
8409;SDS011;4242;53.670;10.080;2022-09-01T13:10:14;1.08;;;0.40;;
8409;SDS011;4242;53.670;10.080;2022-09-01T13:12:41;1.48;;;0.50;;
8409;SDS011;4242;53.670;10.080;2022-09-01T13:15:07;0.50;;;0.30;;
8409;SDS011;4242;53.670;10.080;2022-09-01T13:17:34;0.65;;;0.50;;
8409;SDS011;4242;53.670;10.080;2022-09-01T13:20:02;0.52;;;0.38;;
8409;SDS011;4242;53.670;10.080;2022-09-01T13:22:28;0.50;;;0.50;;
8409;SDS011;4242;53.670;10.080;2022-09-01T13:24:54;0.52;;;0.52;;
8409;SDS011;4242;53.670;10.080;2022-09-01T13:27:20;0.60;;;0.55;;
8409;SDS011;4242;53.670;10.080;2022-09-01T13:29:47;0.50;;;0.50;;
8409;SDS011;4242;53.670;10.080;2022-09-01T13:32:14;0.60;;;0.45;;
8409;SDS011;4242;53.670;10.080;2022-09-01T13:34:40;0.75;;;0.70;;
8409;SDS011;4242;53.670;10.080;2022-09-01T13:37:06;0.52;;;0.52;;
8409;SDS011;4242;53.670;10.080;2022-09-01T13:39:32;0.50;;;0.40;;
8409;SDS011;4242;53.670;10.080;2022-09-01T13:41:58;0.35;;;0.35;;
8409;SDS011;4242;53.670;10.080;2022-09-01T13:44:24;0.30;;;0.30;;
8409;SDS011;4242;53.670;10.080;2022-09-01T13:46:50;0.50;;;0.50;;
8409;SDS011;4242;53.670;10.080;2022-09-01T13:49:16;0.57;;;0.50;;
8409;SDS011;4242;53.670;10.080;2022-09-01T13:51:42;1.10;;;0.50;;
8409;SDS011;4242;53.670;10.080;2022-09-01T13:54:08;3.00;;;0.40;;
8409;SDS011;4242;53.670;10.080;2022-09-01T13:56:34;1.38;;;0.50;;
8409;SDS011;4242;53.670;10.080;2022-09-01T13:59:01;1.25;;;0.68;;
8409;SDS011;4242;53.670;10.080;2022-09-01T14:01:27;1.92;;;0.50;;
8409;SDS011;4242;53.670;10.080;2022-09-01T14:03:53;1.63;;;0.38;;
8409;SDS011;4242;53.670;10.080;2022-09-01T14:06:19;0.65;;;0.50;;
8409;SDS011;4242;53.670;10.080;2022-09-01T14:08:45;1.15;;;0.80;;
8409;SDS011;4242;53.670;10.080;2022-09-01T14:11:15;0.40;;;0.40;;
8409;SDS011;4242;53.670;10.080;2022-09-01T14:13:41;1.38;;;0.57;;
8409;SDS011;4242;53.670;10.080;2022-09-01T14:16:10;1.75;;;0.88;;
8409;SDS011;4242;53.670;10.080;2022-09-01T14:18:36;0.85;;;0.40;;
8409;SDS011;4242;53.670;10.080;2022-09-01T14:21:02;0.85;;;0.50;;
8409;SDS011;4242;53.670;10.080;2022-09-01T14:23:28;0.50;;;0.50;;
8409;SDS011;4242;53.670;10.080;2022-09-01T14:25:54;0.22;;;0.22;;
8409;SDS011;4242;53.670;10.080;2022-09-01T14:28:21;0.35;;;0.30;;
8409;SDS011;4242;53.670;10.080;2022-09-01T14:30:48;0.40;;;0.40;;
8409;SDS011;4242;53.670;10.080;2022-09-01T14:33:14;0.10;;;0.10;;
8409;SDS011;4242;53.670;10.080;2022-09-01T14:35:41;0.20;;;0.20;;
8409;SDS011;4242;53.670;10.080;2022-09-01T14:38:08;0.10;;;0.10;;
8409;SDS011;4242;53.670;10.080;2022-09-01T14:40:35;0.52;;;0.40;;
8409;SDS011;4242;53.670;10.080;2022-09-01T14:43:02;0.30;;;0.30;;
8409;SDS011;4242;53.670;10.080;2022-09-01T14:45:29;0.30;;;0.30;;
8409;SDS011;4242;53.670;10.080;2022-09-01T14:47:56;0.22;;;0.22;;
8409;SDS011;4242;53.670;10.080;2022-09-01T14:50:23;0.20;;;0.20;;
8409;SDS011;4242;53.670;10.080;2022-09-01T14:52:51;0.17;;;0.17;;
8409;SDS011;4242;53.670;10.080;2022-09-01T14:55:18;0.20;;;0.20;;
8409;SDS011;4242;53.670;10.080;2022-09-01T14:57:44;0.17;;;0.17;;
8409;SDS011;4242;53.670;10.080;2022-09-01T15:00:11;0.20;;;0.20;;
8409;SDS011;4242;53.670;10.080;2022-09-01T15:02:41;0.15;;;0.10;;
8409;SDS011;4242;53.670;10.080;2022-09-01T15:05:07;0.20;;;0.10;;
8409;SDS011;4242;53.670;10.080;2022-09-01T15:07:34;0.43;;;0.20;;
8409;SDS011;4242;53.670;10.080;2022-09-01T15:10:00;1.40;;;0.30;;
8409;SDS011;4242;53.670;10.080;2022-09-01T15:12:26;0.00;;;0.00;;
8409;SDS011;4242;53.670;10.080;2022-09-01T15:14:54;0.43;;;0.30;;
8409;SDS011;4242;53.670;10.080;2022-09-01T15:17:20;1.20;;;0.20;;
8409;SDS011;4242;53.670;10.080;2022-09-01T15:19:46;0.30;;;0.20;;
8409;SDS011;4242;53.670;10.080;2022-09-01T15:22:12;0.28;;;0.28;;
8409;SDS011;4242;53.670;10.080;2022-09-01T15:24:41;0.65;;;0.30;;
8409;SDS011;4242;53.670;10.080;2022-09-01T15:27:07;2.00;;;0.35;;
8409;SDS011;4242;53.670;10.080;2022-09-01T15:29:35;1.85;;;0.40;;
8409;SDS011;4242;53.670;10.080;2022-09-01T15:32:10;0.30;;;0.30;;
8409;SDS011;4242;53.670;10.080;2022-09-01T15:34:36;0.55;;;0.55;;
8409;SDS011;4242;53.670;10.080;2022-09-01T15:37:03;7.93;;;0.55;;
8409;SDS011;4242;53.670;10.080;2022-09-01T15:39:29;0.30;;;0.30;;
8409;SDS011;4242;53.670;10.080;2022-09-01T15:41:55;0.40;;;0.40;;
8409;SDS011;4242;53.670;10.080;2022-09-01T15:44:21;1.10;;;0.40;;
8409;SDS011;4242;53.670;10.080;2022-09-01T15:46:47;0.32;;;0.30;;
8409;SDS011;4242;53.670;10.080;2022-09-01T15:49:14;0.55;;;0.40;;
8409;SDS011;4242;53.670;10.080;2022-09-01T15:51:42;1.13;;;0.40;;
8409;SDS011;4242;53.670;10.080;2022-09-01T15:54:10;0.20;;;0.20;;
8409;SDS011;4242;53.670;10.080;2022-09-01T15:56:36;0.35;;;0.30;;
8409;SDS011;4242;53.670;10.080;2022-09-01T15:59:02;0.30;;;0.30;;
8409;SDS011;4242;53.670;10.080;2022-09-01T16:01:30;0.55;;;0.50;;
8409;SDS011;4242;53.670;10.080;2022-09-01T16:03:57;0.43;;;0.20;;